sensor_id;sensor_type;location;lat;lon;timestamp;P1;durP1;ratioP1;P2;durP2;ratioP2
7215;SDS011;3649;48.798;9.798;2023-08-06T00:01:56;4.57;;;3.80;;
7215;SDS011;3649;48.798;9.798;2023-08-06T00:04:23;4.30;;;3.90;;
7215;SDS011;3649;48.798;9.798;2023-08-06T00:06:50;4.67;;;4.27;;
7215;SDS011;3649;48.798;9.798;2023-08-06T00:09:17;4.23;;;3.83;;
7215;SDS011;3649;48.798;9.798;2023-08-06T00:11:44;4.23;;;3.87;;
7215;SDS011;3649;48.798;9.798;2023-08-06T00:14:13;4.13;;;3.70;;
7215;SDS011;3649;48.798;9.798;2023-08-06T00:16:44;5.50;;;3.80;;
7215;SDS011;3649;48.798;9.798;2023-08-06T00:19:11;5.30;;;3.47;;
7215;SDS011;3649;48.798;9.798;2023-08-06T00:21:38;4.60;;;4.20;;
7215;SDS011;3649;48.798;9.798;2023-08-06T00:24:05;4.10;;;3.80;;
7215;SDS011;3649;48.798;9.798;2023-08-06T00:26:32;5.00;;;3.93;;
7215;SDS011;3649;48.798;9.798;2023-08-06T00:28:59;5.50;;;3.97;;
7215;SDS011;3649;48.798;9.798;2023-08-06T00:31:26;4.13;;;3.83;;
7215;SDS011;3649;48.798;9.798;2023-08-06T00:33:53;4.03;;;3.67;;
7215;SDS011;3649;48.798;9.798;2023-08-06T00:36:20;4.20;;;3.80;;
7215;SDS011;3649;48.798;9.798;2023-08-06T00:38:46;4.67;;;3.97;;
7215;SDS011;3649;48.798;9.798;2023-08-06T00:41:13;4.50;;;4.10;;
7215;SDS011;3649;48.798;9.798;2023-08-06T00:43:41;5.83;;;3.97;;
7215;SDS011;3649;48.798;9.798;2023-08-06T00:46:07;4.27;;;3.87;;
7215;SDS011;3649;48.798;9.798;2023-08-06T00:48:35;4.40;;;4.03;;
7215;SDS011;3649;48.798;9.798;2023-08-06T00:51:01;4.07;;;3.77;;
7215;SDS011;3649;48.798;9.798;2023-08-06T00:53:29;4.13;;;3.83;;
7215;SDS011;3649;48.798;9.798;2023-08-06T00:55:56;4.30;;;3.60;;
7215;SDS011;3649;48.798;9.798;2023-08-06T00:58:23;4.80;;;3.80;;
7215;SDS011;3649;48.798;9.798;2023-08-06T01:00:51;4.27;;;3.70;;
7215;SDS011;3649;48.798;9.798;2023-08-06T01:03:18;4.63;;;4.20;;
7215;SDS011;3649;48.798;9.798;2023-08-06T01:05:45;4.90;;;3.90;;
7215;SDS011;3649;48.798;9.798;2023-08-06T01:16:09;4.30;;;3.97;;
7215;SDS011;3649;48.798;9.798;2023-08-06T01:18:38;4.50;;;4.10;;
7215;SDS011;3649;48.798;9.798;2023-08-06T01:21:05;4.17;;;3.87;;
7215;SDS011;3649;48.798;9.798;2023-08-06T01:23:32;6.27;;;4.27;;
7215;SDS011;3649;48.798;9.798;2023-08-06T01:29:03;4.27;;;3.90;;
7215;SDS011;3649;48.798;9.798;2023-08-06T01:31:52;4.50;;;4.10;;
7215;SDS011;3649;48.798;9.798;2023-08-06T01:34:21;4.90;;;3.83;;
7215;SDS011;3649;48.798;9.798;2023-08-06T01:36:52;4.33;;;3.90;;
7215;SDS011;3649;48.798;9.798;2023-08-06T01:39:19;4.60;;;4.20;;
7215;SDS011;3649;48.798;9.798;2023-08-06T01:41:49;3.50;;;3.30;;
7215;SDS011;3649;48.798;9.798;2023-08-06T01:44:16;4.40;;;4.00;;
7215;SDS011;3649;48.798;9.798;2023-08-06T01:46:44;3.93;;;3.63;;
7215;SDS011;3649;48.798;9.798;2023-08-06T01:49:11;4.10;;;3.70;;
7215;SDS011;3649;48.798;9.798;2023-08-06T01:51:38;4.10;;;3.67;;
7215;SDS011;3649;48.798;9.798;2023-08-06T01:54:05;4.10;;;3.80;;
7215;SDS011;3649;48.798;9.798;2023-08-06T01:56:32;4.23;;;3.83;;
7215;SDS011;3649;48.798;9.798;2023-08-06T01:58:59;6.43;;;4.03;;
7215;SDS011;3649;48.798;9.798;2023-08-06T02:01:30;4.40;;;4.00;;
7215;SDS011;3649;48.798;9.798;2023-08-06T02:03:56;4.87;;;4.00;;
7215;SDS011;3649;48.798;9.798;2023-08-06T02:06:23;4.63;;;4.17;;
7215;SDS011;3649;48.798;9.798;2023-08-06T02:08:50;4.40;;;4.10;;
7215;SDS011;3649;48.798;9.798;2023-08-06T02:11:17;4.30;;;3.77;;
7215;SDS011;3649;48.798;9.798;2023-08-06T02:13:45;4.07;;;3.77;;
7215;SDS011;3649;48.798;9.798;2023-08-06T02:16:12;5.00;;;4.17;;
7215;SDS011;3649;48.798;9.798;2023-08-06T02:18:39;7.30;;;3.80;;
7215;SDS011;3649;48.798;9.798;2023-08-06T02:21:06;4.87;;;4.37;;
7215;SDS011;3649;48.798;9.798;2023-08-06T02:23:33;4.93;;;4.43;;
7215;SDS011;3649;48.798;9.798;2023-08-06T02:26:00;5.60;;;4.37;;
7215;SDS011;3649;48.798;9.798;2023-08-06T02:28:29;4.47;;;4.07;;
7215;SDS011;3649;48.798;9.798;2023-08-06T02:30:58;4.43;;;4.03;;
7215;SDS011;3649;48.798;9.798;2023-08-06T02:33:25;6.13;;;4.43;;
7215;SDS011;3649;48.798;9.798;2023-08-06T02:35:58;6.23;;;4.27;;
7215;SDS011;3649;48.798;9.798;2023-08-06T02:38:26;5.80;;;3.90;;
7215;SDS011;3649;48.798;9.798;2023-08-06T02:40:53;4.27;;;3.90;;
7215;SDS011;3649;48.798;9.798;2023-08-06T02:43:20;4.33;;;3.93;;
7215;SDS011;3649;48.798;9.798;2023-08-06T02:45:47;4.63;;;4.17;;
7215;SDS011;3649;48.798;9.798;2023-08-06T02:48:14;3.87;;;3.67;;
7215;SDS011;3649;48.798;9.798;2023-08-06T02:50:41;4.90;;;4.43;;
7215;SDS011;3649;48.798;9.798;2023-08-06T02:53:08;6.27;;;3.87;;
7215;SDS011;3649;48.798;9.798;2023-08-06T02:55:35;4.33;;;3.93;;
7215;SDS011;3649;48.798;9.798;2023-08-06T02:58:02;4.30;;;3.90;;
7215;SDS011;3649;48.798;9.798;2023-08-06T03:00:29;4.57;;;3.87;;
7215;SDS011;3649;48.798;9.798;2023-08-06T03:02:56;3.90;;;3.60;;
7215;SDS011;3649;48.798;9.798;2023-08-06T03:05:23;4.67;;;3.83;;
7215;SDS011;3649;48.798;9.798;2023-08-06T03:07:50;5.43;;;3.60;;
7215;SDS011;3649;48.798;9.798;2023-08-06T03:10:17;3.83;;;3.53;;
7215;SDS011;3649;48.798;9.798;2023-08-06T03:12:44;3.80;;;3.50;;
7215;SDS011;3649;48.798;9.798;2023-08-06T03:15:11;4.40;;;3.73;;
7215;SDS011;3649;48.798;9.798;2023-08-06T03:17:38;4.30;;;3.90;;
7215;SDS011;3649;48.798;9.798;2023-08-06T03:20:05;4.33;;;3.93;;
7215;SDS011;3649;48.798;9.798;2023-08-06T03:22:32;6.70;;;4.07;;
7215;SDS011;3649;48.798;9.798;2023-08-06T03:24:59;4.10;;;3.80;;
7215;SDS011;3649;48.798;9.798;2023-08-06T03:27:26;4.33;;;3.80;;
7215;SDS011;3649;48.798;9.798;2023-08-06T03:29:53;3.83;;;3.53;;
7215;SDS011;3649;48.798;9.798;2023-08-06T03:32:20;4.30;;;4.00;;
7215;SDS011;3649;48.798;9.798;2023-08-06T03:34:47;4.80;;;3.70;;
7215;SDS011;3649;48.798;9.798;2023-08-06T03:37:14;4.83;;;3.80;;
7215;SDS011;3649;48.798;9.798;2023-08-06T03:39:41;4.87;;;4.30;;
7215;SDS011;3649;48.798;9.798;2023-08-06T03:42:08;4.33;;;4.00;;
7215;SDS011;3649;48.798;9.798;2023-08-06T03:44:34;4.33;;;3.93;;
7215;SDS011;3649;48.798;9.798;2023-08-06T03:47:01;3.17;;;2.97;;
7215;SDS011;3649;48.798;9.798;2023-08-06T03:49:28;3.23;;;2.80;;
7215;SDS011;3649;48.798;9.798;2023-08-06T03:51:55;4.07;;;2.70;;
7215;SDS011;3649;48.798;9.798;2023-08-06T03:54:22;3.20;;;2.80;;
7215;SDS011;3649;48.798;9.798;2023-08-06T03:56:49;2.73;;;2.63;;
7215;SDS011;3649;48.798;9.798;2023-08-06T03:59:15;3.27;;;2.47;;
7215;SDS011;3649;48.798;9.798;2023-08-06T04:01:42;3.10;;;2.80;;
7215;SDS011;3649;48.798;9.798;2023-08-06T04:04:09;3.40;;;3.20;;
7215;SDS011;3649;48.798;9.798;2023-08-06T04:06:36;2.90;;;2.70;;
7215;SDS011;3649;48.798;9.798;2023-08-06T04:09:03;4.90;;;3.30;;
7215;SDS011;3649;48.798;9.798;2023-08-06T04:11:30;3.10;;;2.83;;
7215;SDS011;3649;48.798;9.798;2023-08-06T04:13:56;2.90;;;2.70;;
7215;SDS011;3649;48.798;9.798;2023-08-06T04:16:23;2.83;;;2.63;;
7215;SDS011;3649;48.798;9.798;2023-08-06T04:18:52;3.70;;;2.80;;
7215;SDS011;3649;48.798;9.798;2023-08-06T04:21:21;5.93;;;3.23;;
7215;SDS011;3649;48.798;9.798;2023-08-06T04:23:48;4.73;;;2.67;;
7215;SDS011;3649;48.798;9.798;2023-08-06T04:26:15;3.00;;;2.67;;
7215;SDS011;3649;48.798;9.798;2023-08-06T04:28:42;3.83;;;2.90;;
7215;SDS011;3649;48.798;9.798;2023-08-06T04:31:09;4.97;;;2.47;;
7215;SDS011;3649;48.798;9.798;2023-08-06T04:33:36;3.20;;;2.60;;
7215;SDS011;3649;48.798;9.798;2023-08-06T04:36:03;3.63;;;2.60;;
7215;SDS011;3649;48.798;9.798;2023-08-06T04:38:30;3.43;;;2.80;;
7215;SDS011;3649;48.798;9.798;2023-08-06T04:40:57;2.70;;;2.50;;
7215;SDS011;3649;48.798;9.798;2023-08-06T04:43:24;4.47;;;2.90;;
7215;SDS011;3649;48.798;9.798;2023-08-06T04:45:53;2.87;;;2.70;;
7215;SDS011;3649;48.798;9.798;2023-08-06T04:48:20;5.30;;;2.53;;
7215;SDS011;3649;48.798;9.798;2023-08-06T04:50:48;2.73;;;2.30;;
7215;SDS011;3649;48.798;9.798;2023-08-06T04:53:16;7.17;;;2.73;;
7215;SDS011;3649;48.798;9.798;2023-08-06T04:55:43;3.03;;;2.80;;
7215;SDS011;3649;48.798;9.798;2023-08-06T04:58:10;3.57;;;2.53;;
7215;SDS011;3649;48.798;9.798;2023-08-06T05:00:37;2.40;;;2.20;;
7215;SDS011;3649;48.798;9.798;2023-08-06T05:03:05;2.30;;;2.20;;
7215;SDS011;3649;48.798;9.798;2023-08-06T05:05:32;2.73;;;2.50;;
7215;SDS011;3649;48.798;9.798;2023-08-06T05:07:59;2.90;;;2.60;;
7215;SDS011;3649;48.798;9.798;2023-08-06T05:10:26;3.40;;;2.30;;
7215;SDS011;3649;48.798;9.798;2023-08-06T05:12:54;2.30;;;2.10;;
7215;SDS011;3649;48.798;9.798;2023-08-06T05:15:21;2.33;;;2.20;;
7215;SDS011;3649;48.798;9.798;2023-08-06T05:17:48;2.40;;;2.10;;
7215;SDS011;3649;48.798;9.798;2023-08-06T05:20:15;2.50;;;2.30;;
7215;SDS011;3649;48.798;9.798;2023-08-06T05:22:42;2.87;;;2.37;;
7215;SDS011;3649;48.798;9.798;2023-08-06T05:25:12;2.50;;;2.07;;
7215;SDS011;3649;48.798;9.798;2023-08-06T05:27:40;3.03;;;1.70;;
7215;SDS011;3649;48.798;9.798;2023-08-06T05:30:08;3.40;;;1.83;;
7215;SDS011;3649;48.798;9.798;2023-08-06T05:32:35;1.53;;;1.43;;
7215;SDS011;3649;48.798;9.798;2023-08-06T05:35:02;3.03;;;1.50;;
7215;SDS011;3649;48.798;9.798;2023-08-06T05:37:30;1.70;;;1.60;;
7215;SDS011;3649;48.798;9.798;2023-08-06T05:39:56;1.87;;;1.50;;
7215;SDS011;3649;48.798;9.798;2023-08-06T05:42:24;1.70;;;1.60;;
7215;SDS011;3649;48.798;9.798;2023-08-06T05:44:52;2.20;;;1.40;;
7215;SDS011;3649;48.798;9.798;2023-08-06T05:47:22;3.73;;;1.60;;
7215;SDS011;3649;48.798;9.798;2023-08-06T05:49:49;2.63;;;1.50;;
7215;SDS011;3649;48.798;9.798;2023-08-06T05:52:16;2.33;;;1.67;;
7215;SDS011;3649;48.798;9.798;2023-08-06T05:54:43;3.80;;;1.43;;
7215;SDS011;3649;48.798;9.798;2023-08-06T05:57:10;2.03;;;1.50;;
7215;SDS011;3649;48.798;9.798;2023-08-06T05:59:40;2.07;;;1.93;;
7215;SDS011;3649;48.798;9.798;2023-08-06T06:02:15;2.03;;;1.93;;
7215;SDS011;3649;48.798;9.798;2023-08-06T06:04:44;2.37;;;2.17;;
7215;SDS011;3649;48.798;9.798;2023-08-06T06:07:12;1.67;;;1.57;;
7215;SDS011;3649;48.798;9.798;2023-08-06T06:09:40;2.43;;;1.40;;
7215;SDS011;3649;48.798;9.798;2023-08-06T06:12:07;3.03;;;1.60;;
7215;SDS011;3649;48.798;9.798;2023-08-06T06:14:34;3.93;;;1.67;;
7215;SDS011;3649;48.798;9.798;2023-08-06T06:17:01;7.97;;;1.70;;
7215;SDS011;3649;48.798;9.798;2023-08-06T06:19:28;2.27;;;1.47;;
7215;SDS011;3649;48.798;9.798;2023-08-06T06:21:54;1.70;;;1.60;;
7215;SDS011;3649;48.798;9.798;2023-08-06T06:24:24;1.63;;;1.50;;
7215;SDS011;3649;48.798;9.798;2023-08-06T06:26:51;1.40;;;1.30;;
7215;SDS011;3649;48.798;9.798;2023-08-06T06:29:17;3.47;;;1.80;;
7215;SDS011;3649;48.798;9.798;2023-08-06T06:31:44;1.63;;;1.53;;
7215;SDS011;3649;48.798;9.798;2023-08-06T06:34:12;2.57;;;1.53;;
7215;SDS011;3649;48.798;9.798;2023-08-06T06:36:38;3.03;;;1.40;;
7215;SDS011;3649;48.798;9.798;2023-08-06T06:39:05;2.10;;;1.33;;
7215;SDS011;3649;48.798;9.798;2023-08-06T06:41:32;3.23;;;1.40;;
7215;SDS011;3649;48.798;9.798;2023-08-06T06:43:59;1.63;;;1.23;;
7215;SDS011;3649;48.798;9.798;2023-08-06T06:46:26;1.60;;;1.10;;
7215;SDS011;3649;48.798;9.798;2023-08-06T06:48:53;2.83;;;1.27;;
7215;SDS011;3649;48.798;9.798;2023-08-06T06:51:21;2.53;;;1.57;;
7215;SDS011;3649;48.798;9.798;2023-08-06T06:53:48;1.50;;;1.30;;
7215;SDS011;3649;48.798;9.798;2023-08-06T06:56:15;1.50;;;1.40;;
7215;SDS011;3649;48.798;9.798;2023-08-06T06:58:42;2.50;;;1.20;;
7215;SDS011;3649;48.798;9.798;2023-08-06T07:01:09;1.40;;;1.30;;
7215;SDS011;3649;48.798;9.798;2023-08-06T07:03:38;1.43;;;1.30;;
7215;SDS011;3649;48.798;9.798;2023-08-06T07:06:05;2.40;;;1.23;;
7215;SDS011;3649;48.798;9.798;2023-08-06T07:08:32;5.13;;;1.23;;
7215;SDS011;3649;48.798;9.798;2023-08-06T07:11:01;2.33;;;1.20;;
7215;SDS011;3649;48.798;9.798;2023-08-06T07:13:32;1.27;;;1.17;;
7215;SDS011;3649;48.798;9.798;2023-08-06T07:16:00;1.40;;;1.20;;
7215;SDS011;3649;48.798;9.798;2023-08-06T07:18:27;2.93;;;1.00;;
7215;SDS011;3649;48.798;9.798;2023-08-06T07:20:54;3.13;;;1.47;;
7215;SDS011;3649;48.798;9.798;2023-08-06T07:23:22;1.23;;;1.13;;
7215;SDS011;3649;48.798;9.798;2023-08-06T07:25:50;1.13;;;1.10;;
7215;SDS011;3649;48.798;9.798;2023-08-06T07:28:17;1.37;;;1.27;;
7215;SDS011;3649;48.798;9.798;2023-08-06T07:30:45;2.07;;;1.00;;
7215;SDS011;3649;48.798;9.798;2023-08-06T07:33:12;1.03;;;0.93;;
7215;SDS011;3649;48.798;9.798;2023-08-06T07:35:39;1.70;;;1.10;;
7215;SDS011;3649;48.798;9.798;2023-08-06T07:38:06;2.27;;;0.83;;
7215;SDS011;3649;48.798;9.798;2023-08-06T07:40:34;2.67;;;1.13;;
7215;SDS011;3649;48.798;9.798;2023-08-06T07:43:02;2.00;;;1.20;;
7215;SDS011;3649;48.798;9.798;2023-08-06T07:45:36;0.90;;;0.90;;
7215;SDS011;3649;48.798;9.798;2023-08-06T07:48:03;0.80;;;0.80;;
7215;SDS011;3649;48.798;9.798;2023-08-06T07:50:30;0.97;;;0.97;;
7215;SDS011;3649;48.798;9.798;2023-08-06T07:52:57;0.77;;;0.73;;
7215;SDS011;3649;48.798;9.798;2023-08-06T07:55:25;1.50;;;0.80;;
7215;SDS011;3649;48.798;9.798;2023-08-06T07:57:52;0.80;;;0.80;;
7215;SDS011;3649;48.798;9.798;2023-08-06T08:00:20;0.80;;;0.80;;
7215;SDS011;3649;48.798;9.798;2023-08-06T08:02:46;0.60;;;0.60;;
7215;SDS011;3649;48.798;9.798;2023-08-06T08:05:14;1.47;;;1.10;;
7215;SDS011;3649;48.798;9.798;2023-08-06T08:07:40;1.43;;;0.90;;
7215;SDS011;3649;48.798;9.798;2023-08-06T08:10:07;0.73;;;0.73;;
7215;SDS011;3649;48.798;9.798;2023-08-06T08:12:34;1.37;;;0.97;;
7215;SDS011;3649;48.798;9.798;2023-08-06T08:15:01;0.87;;;0.73;;
7215;SDS011;3649;48.798;9.798;2023-08-06T08:17:29;1.50;;;0.80;;
7215;SDS011;3649;48.798;9.798;2023-08-06T08:19:56;4.97;;;1.00;;
7215;SDS011;3649;48.798;9.798;2023-08-06T08:22:23;0.80;;;0.70;;
7215;SDS011;3649;48.798;9.798;2023-08-06T08:24:50;0.80;;;0.80;;
7215;SDS011;3649;48.798;9.798;2023-08-06T08:27:17;0.87;;;0.83;;
7215;SDS011;3649;48.798;9.798;2023-08-06T08:29:44;0.60;;;0.60;;
7215;SDS011;3649;48.798;9.798;2023-08-06T08:32:11;1.63;;;1.10;;
7215;SDS011;3649;48.798;9.798;2023-08-06T08:34:38;0.60;;;0.60;;
7215;SDS011;3649;48.798;9.798;2023-08-06T08:37:04;0.70;;;0.70;;
7215;SDS011;3649;48.798;9.798;2023-08-06T08:39:32;0.60;;;0.60;;
7215;SDS011;3649;48.798;9.798;2023-08-06T08:41:59;0.87;;;0.70;;
7215;SDS011;3649;48.798;9.798;2023-08-06T08:44:27;0.60;;;0.60;;
7215;SDS011;3649;48.798;9.798;2023-08-06T08:46:55;1.80;;;0.70;;
7215;SDS011;3649;48.798;9.798;2023-08-06T08:49:23;0.60;;;0.60;;
7215;SDS011;3649;48.798;9.798;2023-08-06T08:51:52;0.70;;;0.70;;
7215;SDS011;3649;48.798;9.798;2023-08-06T08:54:21;0.70;;;0.70;;
7215;SDS011;3649;48.798;9.798;2023-08-06T08:56:50;0.70;;;0.70;;
7215;SDS011;3649;48.798;9.798;2023-08-06T08:59:17;2.47;;;0.80;;
7215;SDS011;3649;48.798;9.798;2023-08-06T09:01:44;0.80;;;0.80;;
7215;SDS011;3649;48.798;9.798;2023-08-06T09:04:18;1.07;;;0.77;;
7215;SDS011;3649;48.798;9.798;2023-08-06T09:06:46;0.60;;;0.60;;
7215;SDS011;3649;48.798;9.798;2023-08-06T09:09:17;0.93;;;0.70;;
7215;SDS011;3649;48.798;9.798;2023-08-06T09:11:53;0.70;;;0.70;;
7215;SDS011;3649;48.798;9.798;2023-08-06T09:14:26;2.10;;;0.63;;
7215;SDS011;3649;48.798;9.798;2023-08-06T09:16:53;0.50;;;0.50;;
7215;SDS011;3649;48.798;9.798;2023-08-06T09:19:20;0.80;;;0.67;;
7215;SDS011;3649;48.798;9.798;2023-08-06T09:21:47;0.57;;;0.57;;
7215;SDS011;3649;48.798;9.798;2023-08-06T09:24:18;0.77;;;0.50;;
7215;SDS011;3649;48.798;9.798;2023-08-06T09:26:45;0.60;;;0.60;;
7215;SDS011;3649;48.798;9.798;2023-08-06T09:29:12;0.70;;;0.70;;
7215;SDS011;3649;48.798;9.798;2023-08-06T09:31:43;0.63;;;0.63;;
7215;SDS011;3649;48.798;9.798;2023-08-06T09:34:15;0.50;;;0.50;;
7215;SDS011;3649;48.798;9.798;2023-08-06T09:36:49;1.00;;;0.67;;
7215;SDS011;3649;48.798;9.798;2023-08-06T09:39:18;1.70;;;0.60;;
7215;SDS011;3649;48.798;9.798;2023-08-06T09:41:47;2.73;;;0.60;;
7215;SDS011;3649;48.798;9.798;2023-08-06T09:44:18;0.60;;;0.60;;
7215;SDS011;3649;48.798;9.798;2023-08-06T09:46:52;0.60;;;0.60;;
7215;SDS011;3649;48.798;9.798;2023-08-06T09:52:00;0.60;;;0.60;;
7215;SDS011;3649;48.798;9.798;2023-08-06T09:54:27;0.90;;;0.90;;
7215;SDS011;3649;48.798;9.798;2023-08-06T09:56:56;0.70;;;0.70;;
7215;SDS011;3649;48.798;9.798;2023-08-06T09:59:23;0.50;;;0.50;;
7215;SDS011;3649;48.798;9.798;2023-08-06T10:01:50;0.60;;;0.60;;
7215;SDS011;3649;48.798;9.798;2023-08-06T10:04:19;0.63;;;0.63;;
7215;SDS011;3649;48.798;9.798;2023-08-06T10:06:51;0.67;;;0.67;;
7215;SDS011;3649;48.798;9.798;2023-08-06T10:09:19;0.60;;;0.60;;
7215;SDS011;3649;48.798;9.798;2023-08-06T10:11:50;0.50;;;0.50;;
7215;SDS011;3649;48.798;9.798;2023-08-06T10:14:21;0.50;;;0.50;;
7215;SDS011;3649;48.798;9.798;2023-08-06T10:16:52;1.03;;;0.70;;
7215;SDS011;3649;48.798;9.798;2023-08-06T10:19:21;0.50;;;0.50;;
7215;SDS011;3649;48.798;9.798;2023-08-06T10:24:45;0.53;;;0.53;;
7215;SDS011;3649;48.798;9.798;2023-08-06T10:27:19;0.80;;;0.70;;
7215;SDS011;3649;48.798;9.798;2023-08-06T10:29:55;0.50;;;0.50;;
7215;SDS011;3649;48.798;9.798;2023-08-06T10:32:46;0.50;;;0.50;;
7215;SDS011;3649;48.798;9.798;2023-08-06T10:35:29;0.63;;;0.63;;
7215;SDS011;3649;48.798;9.798;2023-08-06T10:38:03;0.70;;;0.70;;
7215;SDS011;3649;48.798;9.798;2023-08-06T10:40:36;0.60;;;0.60;;
7215;SDS011;3649;48.798;9.798;2023-08-06T10:43:07;0.60;;;0.60;;
7215;SDS011;3649;48.798;9.798;2023-08-06T10:45:35;0.57;;;0.57;;
7215;SDS011;3649;48.798;9.798;2023-08-06T10:48:03;0.67;;;0.67;;
7215;SDS011;3649;48.798;9.798;2023-08-06T10:50:30;0.63;;;0.63;;
7215;SDS011;3649;48.798;9.798;2023-08-06T10:52:58;0.50;;;0.50;;
7215;SDS011;3649;48.798;9.798;2023-08-06T10:55:31;0.60;;;0.60;;
7215;SDS011;3649;48.798;9.798;2023-08-06T10:57:58;1.13;;;0.80;;
7215;SDS011;3649;48.798;9.798;2023-08-06T11:00:27;0.60;;;0.60;;
7215;SDS011;3649;48.798;9.798;2023-08-06T11:02:54;1.60;;;0.60;;
7215;SDS011;3649;48.798;9.798;2023-08-06T11:05:21;0.50;;;0.50;;
7215;SDS011;3649;48.798;9.798;2023-08-06T11:07:48;0.60;;;0.60;;
7215;SDS011;3649;48.798;9.798;2023-08-06T11:10:17;0.60;;;0.60;;
7215;SDS011;3649;48.798;9.798;2023-08-06T11:12:44;3.00;;;0.80;;
7215;SDS011;3649;48.798;9.798;2023-08-06T11:15:11;0.60;;;0.60;;
7215;SDS011;3649;48.798;9.798;2023-08-06T11:17:39;0.80;;;0.80;;
7215;SDS011;3649;48.798;9.798;2023-08-06T11:20:06;0.60;;;0.60;;
7215;SDS011;3649;48.798;9.798;2023-08-06T11:22:34;0.70;;;0.70;;
7215;SDS011;3649;48.798;9.798;2023-08-06T11:25:02;0.57;;;0.57;;
7215;SDS011;3649;48.798;9.798;2023-08-06T11:27:30;0.60;;;0.60;;
7215;SDS011;3649;48.798;9.798;2023-08-06T11:29:57;0.70;;;0.70;;
7215;SDS011;3649;48.798;9.798;2023-08-06T11:32:24;0.60;;;0.60;;
7215;SDS011;3649;48.798;9.798;2023-08-06T11:34:52;0.57;;;0.57;;
7215;SDS011;3649;48.798;9.798;2023-08-06T11:37:21;0.67;;;0.67;;
7215;SDS011;3649;48.798;9.798;2023-08-06T11:39:51;1.50;;;0.60;;
7215;SDS011;3649;48.798;9.798;2023-08-06T11:42:18;0.60;;;0.60;;
7215;SDS011;3649;48.798;9.798;2023-08-06T11:44:45;0.50;;;0.50;;
7215;SDS011;3649;48.798;9.798;2023-08-06T11:47:13;0.60;;;0.60;;
7215;SDS011;3649;48.798;9.798;2023-08-06T11:49:49;0.93;;;0.80;;
7215;SDS011;3649;48.798;9.798;2023-08-06T11:52:17;0.60;;;0.60;;
7215;SDS011;3649;48.798;9.798;2023-08-06T11:55:01;0.70;;;0.70;;
7215;SDS011;3649;48.798;9.798;2023-08-06T11:57:30;0.80;;;0.70;;
7215;SDS011;3649;48.798;9.798;2023-08-06T12:00:11;4.70;;;1.00;;
7215;SDS011;3649;48.798;9.798;2023-08-06T12:02:39;2.90;;;0.73;;
7215;SDS011;3649;48.798;9.798;2023-08-06T12:07:43;0.70;;;0.70;;
7215;SDS011;3649;48.798;9.798;2023-08-06T12:10:12;0.80;;;0.80;;
7215;SDS011;3649;48.798;9.798;2023-08-06T12:12:40;0.70;;;0.70;;
7215;SDS011;3649;48.798;9.798;2023-08-06T12:15:08;0.70;;;0.70;;
7215;SDS011;3649;48.798;9.798;2023-08-06T12:17:36;1.00;;;1.00;;
7215;SDS011;3649;48.798;9.798;2023-08-06T12:20:03;0.70;;;0.70;;
7215;SDS011;3649;48.798;9.798;2023-08-06T12:22:32;0.80;;;0.80;;
7215;SDS011;3649;48.798;9.798;2023-08-06T12:25:04;1.17;;;0.77;;
7215;SDS011;3649;48.798;9.798;2023-08-06T12:27:34;0.77;;;0.70;;
7215;SDS011;3649;48.798;9.798;2023-08-06T12:30:02;0.87;;;0.80;;
7215;SDS011;3649;48.798;9.798;2023-08-06T12:32:30;0.90;;;0.90;;
7215;SDS011;3649;48.798;9.798;2023-08-06T12:34:57;1.37;;;1.10;;
7215;SDS011;3649;48.798;9.798;2023-08-06T12:37:24;1.30;;;1.13;;
7215;SDS011;3649;48.798;9.798;2023-08-06T12:39:51;1.43;;;1.37;;
7215;SDS011;3649;48.798;9.798;2023-08-06T12:42:19;0.90;;;0.90;;
7215;SDS011;3649;48.798;9.798;2023-08-06T12:44:46;1.10;;;1.10;;
7215;SDS011;3649;48.798;9.798;2023-08-06T12:47:15;1.80;;;1.40;;
7215;SDS011;3649;48.798;9.798;2023-08-06T12:49:43;1.67;;;1.10;;
7215;SDS011;3649;48.798;9.798;2023-08-06T12:52:09;1.17;;;1.17;;
7215;SDS011;3649;48.798;9.798;2023-08-06T12:54:39;1.20;;;1.20;;
7215;SDS011;3649;48.798;9.798;2023-08-06T12:57:05;3.00;;;1.20;;
7215;SDS011;3649;48.798;9.798;2023-08-06T12:59:33;2.00;;;1.10;;
7215;SDS011;3649;48.798;9.798;2023-08-06T13:02:00;2.10;;;1.40;;
7215;SDS011;3649;48.798;9.798;2023-08-06T13:04:27;2.73;;;1.50;;
7215;SDS011;3649;48.798;9.798;2023-08-06T13:06:54;1.77;;;1.30;;
7215;SDS011;3649;48.798;9.798;2023-08-06T13:09:21;1.30;;;1.30;;
7215;SDS011;3649;48.798;9.798;2023-08-06T13:11:48;1.63;;;1.53;;
7215;SDS011;3649;48.798;9.798;2023-08-06T13:14:16;1.60;;;1.50;;
7215;SDS011;3649;48.798;9.798;2023-08-06T13:16:44;1.30;;;1.23;;
7215;SDS011;3649;48.798;9.798;2023-08-06T13:19:11;2.63;;;1.30;;
7215;SDS011;3649;48.798;9.798;2023-08-06T13:24:08;1.27;;;1.27;;
7215;SDS011;3649;48.798;9.798;2023-08-06T13:26:35;1.20;;;1.20;;
7215;SDS011;3649;48.798;9.798;2023-08-06T13:29:02;3.63;;;1.40;;
7215;SDS011;3649;48.798;9.798;2023-08-06T13:31:29;2.67;;;1.43;;
7215;SDS011;3649;48.798;9.798;2023-08-06T13:33:56;1.60;;;1.50;;
7215;SDS011;3649;48.798;9.798;2023-08-06T13:36:26;6.13;;;1.50;;
7215;SDS011;3649;48.798;9.798;2023-08-06T13:38:53;1.70;;;1.60;;
7215;SDS011;3649;48.798;9.798;2023-08-06T13:41:21;1.47;;;1.20;;
7215;SDS011;3649;48.798;9.798;2023-08-06T13:43:48;1.20;;;1.17;;
7215;SDS011;3649;48.798;9.798;2023-08-06T13:46:17;1.43;;;1.40;;
7215;SDS011;3649;48.798;9.798;2023-08-06T13:48:47;1.63;;;1.27;;
7215;SDS011;3649;48.798;9.798;2023-08-06T13:51:18;1.53;;;1.43;;
7215;SDS011;3649;48.798;9.798;2023-08-06T13:53:45;1.43;;;1.33;;
7215;SDS011;3649;48.798;9.798;2023-08-06T13:56:12;1.47;;;1.10;;
7215;SDS011;3649;48.798;9.798;2023-08-06T13:58:41;1.00;;;1.00;;
7215;SDS011;3649;48.798;9.798;2023-08-06T14:01:09;1.27;;;1.23;;
7215;SDS011;3649;48.798;9.798;2023-08-06T14:03:37;1.40;;;1.30;;
7215;SDS011;3649;48.798;9.798;2023-08-06T14:06:04;1.40;;;1.30;;
7215;SDS011;3649;48.798;9.798;2023-08-06T14:08:31;1.00;;;1.00;;
7215;SDS011;3649;48.798;9.798;2023-08-06T14:10:58;1.20;;;1.20;;
7215;SDS011;3649;48.798;9.798;2023-08-06T14:13:25;1.50;;;1.10;;
7215;SDS011;3649;48.798;9.798;2023-08-06T14:15:52;2.20;;;1.30;;
7215;SDS011;3649;48.798;9.798;2023-08-06T14:18:19;1.00;;;1.00;;
7215;SDS011;3649;48.798;9.798;2023-08-06T14:20:46;1.33;;;1.23;;
7215;SDS011;3649;48.798;9.798;2023-08-06T14:23:13;1.20;;;1.10;;
7215;SDS011;3649;48.798;9.798;2023-08-06T14:25:39;1.20;;;1.20;;
7215;SDS011;3649;48.798;9.798;2023-08-06T14:28:06;1.43;;;1.00;;
7215;SDS011;3649;48.798;9.798;2023-08-06T14:30:34;1.27;;;1.17;;
7215;SDS011;3649;48.798;9.798;2023-08-06T14:33:01;1.73;;;1.13;;
7215;SDS011;3649;48.798;9.798;2023-08-06T14:35:49;1.07;;;1.07;;
7215;SDS011;3649;48.798;9.798;2023-08-06T14:38:16;1.20;;;1.10;;
7215;SDS011;3649;48.798;9.798;2023-08-06T14:40:43;1.17;;;1.10;;
7215;SDS011;3649;48.798;9.798;2023-08-06T14:43:10;1.10;;;1.10;;
7215;SDS011;3649;48.798;9.798;2023-08-06T14:45:40;0.93;;;0.90;;
7215;SDS011;3649;48.798;9.798;2023-08-06T14:48:07;0.80;;;0.80;;
7215;SDS011;3649;48.798;9.798;2023-08-06T14:50:34;2.23;;;0.83;;
7215;SDS011;3649;48.798;9.798;2023-08-06T14:53:02;1.13;;;1.03;;
7215;SDS011;3649;48.798;9.798;2023-08-06T14:55:30;0.87;;;0.87;;
7215;SDS011;3649;48.798;9.798;2023-08-06T14:57:58;2.20;;;1.00;;
7215;SDS011;3649;48.798;9.798;2023-08-06T15:00:27;1.60;;;1.00;;
7215;SDS011;3649;48.798;9.798;2023-08-06T15:02:54;0.83;;;0.83;;
7215;SDS011;3649;48.798;9.798;2023-08-06T15:05:21;2.93;;;0.97;;
7215;SDS011;3649;48.798;9.798;2023-08-06T15:07:48;1.10;;;1.00;;
7215;SDS011;3649;48.798;9.798;2023-08-06T15:10:15;1.10;;;1.00;;
7215;SDS011;3649;48.798;9.798;2023-08-06T15:12:52;1.00;;;1.00;;
7215;SDS011;3649;48.798;9.798;2023-08-06T15:15:19;1.10;;;1.10;;
7215;SDS011;3649;48.798;9.798;2023-08-06T15:17:46;1.53;;;1.20;;
7215;SDS011;3649;48.798;9.798;2023-08-06T15:20:13;1.60;;;1.20;;
7215;SDS011;3649;48.798;9.798;2023-08-06T15:22:40;0.80;;;0.80;;
7215;SDS011;3649;48.798;9.798;2023-08-06T15:25:07;0.90;;;0.90;;
7215;SDS011;3649;48.798;9.798;2023-08-06T15:27:34;1.80;;;0.90;;
7215;SDS011;3649;48.798;9.798;2023-08-06T15:30:04;1.10;;;1.00;;
7215;SDS011;3649;48.798;9.798;2023-08-06T15:32:32;1.17;;;1.00;;
7215;SDS011;3649;48.798;9.798;2023-08-06T15:34:59;2.50;;;1.70;;
7215;SDS011;3649;48.798;9.798;2023-08-06T15:37:26;1.20;;;1.20;;
7215;SDS011;3649;48.798;9.798;2023-08-06T15:39:53;1.10;;;1.10;;
7215;SDS011;3649;48.798;9.798;2023-08-06T15:42:20;1.23;;;1.17;;